Terminal Aerodrome Forecast
Issued by NWS Dodge City, KS

Home | Current Version | Previous Version | Graphics & Text | Print | Product List | Glossary Off
Versions: 1 2 3 4 5 6 7 8 9 10 11 12 13 14 15 16 17 18 19 20 21 22 23 24 25 26 27 28

000
FTUS43 KDDC 040540
TAFDDC
TAF
KDDC 040540Z 0406/0506 03015KT P6SM OVC035
     FM040800 03015KT 2SM -SN OVC015
      TEMPO 0409/0413 3/4SM -SN BR OVC007
     FM041500 03015G22KT 5SM -SN OVC015
     FM042200 01011KT P6SM BKN025=

USA.gov is the U.S. government's official web portal to all federal, state and local government web resources and services.